createdAt,value
2022-12-25T00:03:20.736Z,1.90
2022-12-25T00:29:26.748Z,2.10
2022-12-25T00:56:53.663Z,1.85
2022-12-25T01:02:17.273Z,2.30
2022-12-25T01:17:56.577Z,1.80
2022-12-25T01:23:07.534Z,1.50
2022-12-25T02:00:26.671Z,1.80
2022-12-25T02:10:52.569Z,1.70
2022-12-25T02:37:12.095Z,1.70
2022-12-25T02:52:50.812Z,1.42
2022-12-25T02:58:14.397Z,1.70
2022-12-25T04:40:20.706Z,2.20
2022-12-25T04:45:24.800Z,2.50
2022-12-25T04:50:27.023Z,2.10
2022-12-25T05:05:56.546Z,2.10
2022-12-25T05:11:02.213Z,2.35
2022-12-25T05:31:59.051Z,2.38
2022-12-25T05:37:01.259Z,2.90
2022-12-25T05:42:03.414Z,3.28
2022-12-25T05:47:25.283Z,3.40
2022-12-25T05:52:33.167Z,3.25
2022-12-25T06:08:25.910Z,3.35
2022-12-25T06:13:28.050Z,3.63
2022-12-25T06:18:31.753Z,3.60
2022-12-25T06:28:49.700Z,3.53
2022-12-25T06:39:11.539Z,2.90
2022-12-25T06:44:14.816Z,3.00
2022-12-25T06:49:16.691Z,2.80
2022-12-25T07:04:55.095Z,2.88
2022-12-25T07:10:05.163Z,3.00
2022-12-25T07:20:47.851Z,4.65
2022-12-25T07:36:35.797Z,4.15
2022-12-25T07:41:43.230Z,4.38
2022-12-25T07:51:59.822Z,4.20
2022-12-25T08:02:17.863Z,4.40
2022-12-25T08:17:50.695Z,4.20
2022-12-25T08:22:54.233Z,4.07
2022-12-25T08:33:17.850Z,4.28
2022-12-25T08:38:25.352Z,5.15
2022-12-25T08:43:28.915Z,4.50
2022-12-25T08:48:31.272Z,4.60
2022-12-25T08:53:33.407Z,4.80
2022-12-25T09:04:07.156Z,5.70
2022-12-25T09:09:09.387Z,7.95
2022-12-25T09:14:13.932Z,6.63
2022-12-25T09:19:19.611Z,6.90
2022-12-25T09:24:23.240Z,6.13
2022-12-25T09:29:25.722Z,6.70
2022-12-25T09:34:52.834Z,6.50
2022-12-25T09:40:02.538Z,6.35
2022-12-25T09:45:18.422Z,6.30
2022-12-25T09:50:27.158Z,5.80
2022-12-25T09:55:33.987Z,6.68
2022-12-25T10:00:43.880Z,5.60
2022-12-25T10:06:00.583Z,5.68
2022-12-25T10:11:21.133Z,6.68
2022-12-25T10:16:35.267Z,5.82
2022-12-25T10:21:39.907Z,6.07
2022-12-25T10:27:25.395Z,6.55
2022-12-25T10:32:27.539Z,6.47
2022-12-25T10:37:31.383Z,6.90
2022-12-25T10:42:42.125Z,6.13
2022-12-25T10:58:34.786Z,5.40
2022-12-25T11:03:40.433Z,5.68
2022-12-25T11:08:43.213Z,5.13
2022-12-25T11:25:58.522Z,4.47
2022-12-25T11:31:30.193Z,4.95
2022-12-25T11:36:42.722Z,3.80
2022-12-25T11:41:47.545Z,3.50
2022-12-25T11:46:52.322Z,3.80
2022-12-25T11:52:00.968Z,3.70
2022-12-25T11:57:07.750Z,3.92
2022-12-25T12:02:26.465Z,3.15
2022-12-25T12:07:31.671Z,3.80
2022-12-25T12:12:48.861Z,4.15
2022-12-25T12:17:51.479Z,3.60
2022-12-25T12:22:54.093Z,5.53
2022-12-25T12:28:04.883Z,4.68
2022-12-25T12:33:09.295Z,3.03
2022-12-25T12:38:18.164Z,3.40
2022-12-25T12:43:34.661Z,2.53
2022-12-25T12:48:42.416Z,3.10
2022-12-25T12:53:44.856Z,2.85
2022-12-25T12:58:51.189Z,2.75
2022-12-25T13:04:28.713Z,3.17
2022-12-25T13:09:42.407Z,3.13
2022-12-25T13:14:48.298Z,3.20
2022-12-25T13:19:55.016Z,2.85
2022-12-25T13:24:59.225Z,3.50
2022-12-25T13:30:14.670Z,3.88
2022-12-25T13:35:18.613Z,4.55
2022-12-25T13:40:26.248Z,6.88
2022-12-25T13:45:34.604Z,5.28
2022-12-25T13:50:37.887Z,6.13
2022-12-25T13:55:40.828Z,5.90
2022-12-25T14:00:53.519Z,17.00
2022-12-25T14:05:59.903Z,7.10
2022-12-25T14:11:04.028Z,7.53
2022-12-25T14:16:09.277Z,8.15
2022-12-25T14:21:16.652Z,7.72
2022-12-25T14:26:20.368Z,8.27
2022-12-25T14:31:25.942Z,12.32
2022-12-25T14:36:28.739Z,8.82
2022-12-25T14:41:37.089Z,9.10
2022-12-25T14:46:40.696Z,9.65
2022-12-25T14:51:44.692Z,10.73
2022-12-25T14:56:48.555Z,11.57
2022-12-25T15:01:55.116Z,12.13
2022-12-25T15:07:06.953Z,11.88
2022-12-25T15:12:09.230Z,11.70
2022-12-25T15:17:27.479Z,11.75
2022-12-25T15:22:54.277Z,12.52
2022-12-25T15:27:55.198Z,12.68
2022-12-25T15:32:58.750Z,13.40
2022-12-25T15:38:01.347Z,13.63
2022-12-25T15:43:11.426Z,13.77
2022-12-25T15:48:26.524Z,12.20
2022-12-25T15:53:28.867Z,12.73
2022-12-25T15:58:31.057Z,12.38
2022-12-25T16:03:34.633Z,12.48
2022-12-25T16:08:36.967Z,24.92
2022-12-25T16:13:39.152Z,12.25
2022-12-25T16:18:47.421Z,13.18
2022-12-25T16:23:50.127Z,14.88
2022-12-25T16:28:52.288Z,14.25
2022-12-25T16:33:56.613Z,14.43
2022-12-25T16:38:58.803Z,15.98
2022-12-25T16:44:04.835Z,15.20
2022-12-25T16:49:08.801Z,15.73
2022-12-25T16:54:10.937Z,15.32
2022-12-25T16:59:13.349Z,16.80
2022-12-25T17:04:16.871Z,16.42
2022-12-25T17:09:19.031Z,16.10
2022-12-25T17:14:21.203Z,16.33
2022-12-25T17:19:25.226Z,17.35
2022-12-25T17:24:28.925Z,17.70
2022-12-25T17:29:34.412Z,18.20
2022-12-25T17:34:37.996Z,20.58
2022-12-25T17:39:42.483Z,21.58
2022-12-25T17:44:44.595Z,21.00
2022-12-25T17:49:48.131Z,21.65
2022-12-25T17:54:50.922Z,21.85
2022-12-25T17:59:53.973Z,22.15
2022-12-25T18:04:57.814Z,22.85
2022-12-25T18:09:59.995Z,22.25
2022-12-25T18:15:02.242Z,24.50
2022-12-25T18:20:06.299Z,20.27
2022-12-25T18:25:09.250Z,18.35
2022-12-25T18:30:11.911Z,19.33
2022-12-25T18:35:15.486Z,18.58
2022-12-25T18:40:17.859Z,19.02
2022-12-25T18:45:20.909Z,20.88
2022-12-25T18:50:24.693Z,21.73
2022-12-25T18:55:27.921Z,20.90
2022-12-25T19:00:32.398Z,22.23
2022-12-25T19:05:44.093Z,22.00
2022-12-25T19:10:47.173Z,20.08
2022-12-25T19:15:52.154Z,21.02
2022-12-25T19:20:58.074Z,21.73
2022-12-25T19:26:01.727Z,23.48
2022-12-25T19:31:07.774Z,24.02
2022-12-25T19:36:14.778Z,24.95
2022-12-25T19:41:20.666Z,24.40
2022-12-25T19:46:25.067Z,24.13
2022-12-25T19:51:33.683Z,22.90
2022-12-25T19:56:36.934Z,23.52
2022-12-25T20:01:42.612Z,23.73
2022-12-25T20:06:50.265Z,23.67
2022-12-25T20:11:53.206Z,28.40
2022-12-25T20:16:55.755Z,24.50
2022-12-25T20:22:01.116Z,24.80
2022-12-25T20:42:48.558Z,26.98
2022-12-25T20:58:28.772Z,25.80
2022-12-25T21:08:50.684Z,31.20
2022-12-25T21:13:54.503Z,26.70
2022-12-25T21:18:56.663Z,28.30
2022-12-25T21:23:58.833Z,28.05
2022-12-25T21:39:58.624Z,28.48
2022-12-25T21:50:24.674Z,32.67
2022-12-25T22:00:57.914Z,32.63
2022-12-25T22:11:45.647Z,33.78
2022-12-25T22:27:26.820Z,31.55
2022-12-25T22:42:56.803Z,28.60
2022-12-25T22:47:58.940Z,36.22
2022-12-25T22:53:02.654Z,35.93
2022-12-25T23:03:22.140Z,57.03
2022-12-25T23:19:32.357Z,39.75
2022-12-25T23:35:17.416Z,31.23
2022-12-25T23:40:18.732Z,29.67
2022-12-25T23:45:20.881Z,27.80
2022-12-25T23:50:24.383Z,35.13
2022-12-25T23:55:26.543Z,35.25
